createdAt,value
2023-04-27T16:37:50.149Z,100908.28
2023-04-27T16:40:18.304Z,100907.56
2023-04-27T16:42:46.987Z,100906.47
2023-04-27T16:45:14.717Z,100903.63
2023-04-27T16:47:42.617Z,100907.94
2023-04-27T16:50:11.013Z,100903.00
2023-04-27T16:52:38.730Z,100899.59
2023-04-27T16:55:06.804Z,100900.44
2023-04-27T16:57:34.358Z,100904.09
2023-04-27T17:00:02.051Z,100904.94
2023-04-27T17:02:29.747Z,100904.84
2023-04-27T17:04:59.549Z,100897.78
2023-04-27T17:07:28.723Z,100890.84
2023-04-27T17:09:56.569Z,100892.00
2023-04-27T17:12:24.158Z,100885.06
2023-04-27T17:14:51.740Z,100887.16
2023-04-27T17:17:19.419Z,100874.63
2023-04-27T17:19:46.965Z,100880.00
2023-04-27T17:22:15.045Z,100881.25
2023-04-27T17:24:42.619Z,100880.78
2023-04-27T17:27:10.400Z,100876.78
2023-04-27T17:29:38.005Z,100880.28
2023-04-27T17:32:05.730Z,100877.63
2023-04-27T17:34:33.435Z,100869.75
2023-04-27T17:39:55.803Z,100869.16
2023-04-27T17:42:23.456Z,100866.63
2023-04-27T17:44:51.332Z,100866.75
2023-04-27T17:47:20.546Z,100868.00
2023-04-27T17:49:48.107Z,100867.41
2023-04-27T17:52:15.959Z,100856.72
2023-04-27T17:54:43.662Z,100857.25
2023-04-27T17:57:11.205Z,100863.81
2023-04-27T17:59:38.885Z,100868.31
2023-04-27T18:02:06.523Z,100864.09
2023-04-27T18:04:34.348Z,100859.00
2023-04-27T18:07:02.060Z,100861.06
2023-04-27T18:09:30.840Z,100858.66
2023-04-27T18:12:00.787Z,100853.34
2023-04-27T18:14:28.377Z,100858.53
2023-04-27T18:16:56.143Z,100851.63
2023-04-27T18:19:24.123Z,100857.78
2023-04-27T18:21:51.913Z,100851.63
2023-04-27T18:24:19.566Z,100856.25
2023-04-27T18:26:47.145Z,100860.03
2023-04-27T18:29:15.110Z,100854.09
2023-04-27T18:31:46.358Z,100852.00
2023-04-27T18:34:14.492Z,100855.28
2023-04-27T18:36:41.996Z,100858.66
2023-04-27T18:39:09.685Z,100850.91
2023-04-27T18:41:37.233Z,100850.91
2023-04-27T18:44:05.910Z,100846.16
2023-04-27T18:46:34.249Z,100851.25
2023-04-27T18:49:02.445Z,100850.00
2023-04-27T18:51:30.026Z,100846.50
2023-04-27T18:53:58.033Z,100849.16
2023-04-27T18:56:25.975Z,100850.84
2023-04-27T18:58:53.750Z,100849.16
2023-04-27T19:01:26.858Z,100850.13
2023-04-27T19:03:55.083Z,100849.28
2023-04-27T19:06:22.808Z,100840.31
2023-04-27T19:08:50.645Z,100843.94
2023-04-27T19:11:22.291Z,100847.59
2023-04-27T19:13:50.324Z,100848.94
2023-04-27T19:16:26.036Z,100847.66
2023-04-27T19:18:57.256Z,100847.91
2023-04-27T19:21:25.214Z,100849.38
2023-04-27T19:23:53.202Z,100845.28
2023-04-27T19:26:21.432Z,100849.88
2023-04-27T19:28:49.048Z,100849.88
2023-04-27T19:31:17.337Z,100845.66
2023-04-27T19:33:47.372Z,100834.25
2023-04-27T19:36:23.178Z,100852.09
2023-04-27T19:38:50.850Z,100847.84
2023-04-27T19:41:18.664Z,100846.16
2023-04-27T19:43:46.306Z,100847.41
2023-04-27T19:46:14.083Z,100844.97
2023-04-27T19:48:42.520Z,100849.44
2023-04-27T19:51:10.734Z,100848.59
2023-04-27T19:53:39.009Z,100847.06
2023-04-27T19:56:07.501Z,100849.72
2023-04-27T19:58:36.044Z,100849.72
2023-04-27T20:01:04.178Z,100842.69
2023-04-27T20:03:32.128Z,100840.41
2023-04-27T20:06:00.381Z,100844.75
2023-04-27T20:08:28.108Z,100844.91
2023-04-27T20:10:55.785Z,100847.56
2023-04-27T20:13:23.363Z,100844.03
2023-04-27T20:15:51.607Z,100839.81
2023-04-27T20:18:19.492Z,100845.97
2023-04-27T20:20:47.425Z,100843.31
2023-04-27T20:23:15.019Z,100837.97
2023-04-27T20:25:42.636Z,100837.97
2023-04-27T20:28:10.238Z,100839.06
2023-04-27T20:30:37.991Z,100835.56
2023-04-27T20:33:05.660Z,100832.06
2023-04-27T20:35:33.896Z,100837.38
2023-04-27T20:38:02.013Z,100837.25
2023-04-27T20:40:29.617Z,100830.34
2023-04-27T20:42:57.398Z,100830.34
2023-04-27T20:45:25.557Z,100830.34
2023-04-27T20:47:53.445Z,100822.47
2023-04-27T20:50:21.275Z,100821.63
2023-04-27T20:52:48.976Z,100820.06
2023-04-27T20:55:16.717Z,100822.94
2023-04-27T20:57:44.315Z,100822.09
2023-04-27T21:00:13.320Z,100812.41
2023-04-27T21:02:41.069Z,100823.06
2023-04-27T21:05:08.830Z,100811.53
2023-04-27T21:07:36.421Z,100824.88
2023-04-27T21:10:06.901Z,100821.34
2023-04-27T21:12:34.510Z,100814.44
2023-04-27T21:15:02.110Z,100824.28
2023-04-27T21:17:29.914Z,100812.66
2023-04-27T21:19:58.295Z,100813.50
2023-04-27T21:22:26.139Z,100813.34
2023-04-27T21:24:53.682Z,100812.25
2023-04-27T21:27:21.330Z,100814.09
2023-04-27T21:29:49.178Z,100812.19
2023-04-27T21:32:16.962Z,100811.06
2023-04-27T21:34:44.481Z,100812.88
2023-04-27T21:37:12.104Z,100806.56
2023-04-27T21:39:39.659Z,100808.41
2023-04-27T21:42:07.294Z,100804.03
2023-04-27T21:44:34.940Z,100801.38
2023-04-27T21:47:02.658Z,100795.19
2023-04-27T21:49:30.391Z,100795.91
2023-04-27T21:51:58.312Z,100794.94
2023-04-27T21:54:25.997Z,100794.81
2023-04-27T21:56:53.718Z,100800.03
2023-04-27T21:59:21.755Z,100789.72
2023-04-27T22:01:49.408Z,100779.06
2023-04-27T22:04:17.461Z,100774.69
2023-04-27T22:06:45.838Z,100788.88
2023-04-27T22:09:14.147Z,100778.22
2023-04-27T22:11:41.776Z,100775.53
2023-04-27T22:14:09.366Z,100773.72
2023-04-27T22:16:37.027Z,100777.22
2023-04-27T22:19:05.102Z,100771.88
2023-04-27T22:21:33.375Z,100772.03
2023-04-27T22:24:00.917Z,100772.16
2023-04-27T22:26:28.512Z,100781.97
2023-04-27T22:28:56.119Z,100787.19
2023-04-27T22:31:24.001Z,100782.56
2023-04-27T22:33:51.859Z,100781.34
2023-04-27T22:36:19.523Z,100779.53
2023-04-27T22:38:47.302Z,100776.97
2023-04-27T22:41:14.960Z,100780.75
2023-04-27T22:43:42.658Z,100778.22
2023-04-27T22:46:10.249Z,100771.88
2023-04-27T22:48:37.790Z,100777.13
2023-04-27T22:51:09.535Z,100777.84
2023-04-27T22:53:37.660Z,100775.88
2023-04-27T22:56:06.151Z,100776.84
2023-04-27T22:58:33.808Z,100784.88
2023-04-27T23:01:01.734Z,100773.47
2023-04-27T23:03:29.505Z,100782.19
2023-04-27T23:05:57.203Z,100775.88
2023-04-27T23:08:25.358Z,100781.94
2023-04-27T23:10:56.960Z,100776.47
2023-04-27T23:13:27.622Z,100778.19
2023-04-27T23:15:55.333Z,100775.38
2023-04-27T23:18:22.997Z,100775.50
2023-04-27T23:20:57.302Z,100777.19
2023-04-27T23:23:24.884Z,100775.63
2023-04-27T23:25:52.399Z,100771.28
2023-04-27T23:28:20.848Z,100768.72
2023-04-27T23:30:55.145Z,100769.69
2023-04-27T23:33:22.865Z,100762.69
2023-04-27T23:35:50.486Z,100764.50
2023-04-27T23:38:18.044Z,100763.63
2023-04-27T23:40:45.613Z,100761.22
2023-04-27T23:43:13.222Z,100764.03
2023-04-27T23:45:40.960Z,100756.16
2023-04-27T23:48:08.536Z,100757.13
2023-04-27T23:50:36.104Z,100760.84
2023-04-27T23:53:03.788Z,100758.31
2023-04-27T23:55:34.602Z,100760.25
2023-04-27T23:58:02.602Z,100754.91
